sensor_id;sensor_type;location;lat;lon;timestamp;P1;durP1;ratioP1;P2;durP2;ratioP2
71116;SDS011;58775;46.992;9.518;2023-03-12T00:01:10;10.30;;;4.88;;
71116;SDS011;58775;46.992;9.518;2023-03-12T00:03:14;10.95;;;4.95;;
71116;SDS011;58775;46.992;9.518;2023-03-12T00:05:15;11.18;;;4.80;;
71116;SDS011;58775;46.992;9.518;2023-03-12T00:07:16;10.90;;;4.80;;
71116;SDS011;58775;46.992;9.518;2023-03-12T00:09:17;11.23;;;4.43;;
71116;SDS011;58775;46.992;9.518;2023-03-12T00:11:19;11.00;;;4.45;;
71116;SDS011;58775;46.992;9.518;2023-03-12T00:13:20;10.73;;;4.80;;
71116;SDS011;58775;46.992;9.518;2023-03-12T00:15:22;11.55;;;5.28;;
71116;SDS011;58775;46.992;9.518;2023-03-12T00:17:24;10.85;;;4.82;;
71116;SDS011;58775;46.992;9.518;2023-03-12T00:19:25;10.98;;;4.60;;
71116;SDS011;58775;46.992;9.518;2023-03-12T00:21:26;11.73;;;5.10;;
71116;SDS011;58775;46.992;9.518;2023-03-12T00:23:27;11.30;;;4.95;;
71116;SDS011;58775;46.992;9.518;2023-03-12T00:25:29;11.10;;;5.10;;
71116;SDS011;58775;46.992;9.518;2023-03-12T00:27:30;10.68;;;4.85;;
71116;SDS011;58775;46.992;9.518;2023-03-12T00:29:31;11.48;;;5.32;;
71116;SDS011;58775;46.992;9.518;2023-03-12T00:31:32;10.57;;;4.68;;
71116;SDS011;58775;46.992;9.518;2023-03-12T00:33:34;12.45;;;5.32;;
71116;SDS011;58775;46.992;9.518;2023-03-12T00:35:36;10.27;;;4.83;;
71116;SDS011;58775;46.992;9.518;2023-03-12T00:37:38;11.23;;;5.40;;
71116;SDS011;58775;46.992;9.518;2023-03-12T00:39:39;12.20;;;5.43;;
71116;SDS011;58775;46.992;9.518;2023-03-12T00:41:40;11.93;;;5.40;;
71116;SDS011;58775;46.992;9.518;2023-03-12T00:43:41;10.43;;;5.13;;
71116;SDS011;58775;46.992;9.518;2023-03-12T00:45:42;9.48;;;4.82;;
71116;SDS011;58775;46.992;9.518;2023-03-12T00:47:44;12.50;;;5.82;;
71116;SDS011;58775;46.992;9.518;2023-03-12T00:49:45;12.13;;;5.35;;
71116;SDS011;58775;46.992;9.518;2023-03-12T00:51:47;13.07;;;5.65;;
71116;SDS011;58775;46.992;9.518;2023-03-12T00:53:48;12.73;;;6.13;;
71116;SDS011;58775;46.992;9.518;2023-03-12T00:55:49;14.30;;;6.20;;
71116;SDS011;58775;46.992;9.518;2023-03-12T00:57:50;13.63;;;6.45;;
71116;SDS011;58775;46.992;9.518;2023-03-12T00:59:51;13.85;;;6.25;;
71116;SDS011;58775;46.992;9.518;2023-03-12T01:01:52;12.33;;;6.27;;
71116;SDS011;58775;46.992;9.518;2023-03-12T01:03:53;12.45;;;5.53;;
71116;SDS011;58775;46.992;9.518;2023-03-12T01:05:55;12.60;;;5.63;;
71116;SDS011;58775;46.992;9.518;2023-03-12T01:07:56;12.43;;;5.72;;
71116;SDS011;58775;46.992;9.518;2023-03-12T01:09:57;12.88;;;5.72;;
71116;SDS011;58775;46.992;9.518;2023-03-12T01:11:58;11.77;;;5.47;;
71116;SDS011;58775;46.992;9.518;2023-03-12T01:14:00;11.85;;;5.13;;
71116;SDS011;58775;46.992;9.518;2023-03-12T01:16:01;13.18;;;5.82;;
71116;SDS011;58775;46.992;9.518;2023-03-12T01:18:02;14.07;;;5.68;;
71116;SDS011;58775;46.992;9.518;2023-03-12T01:20:04;11.48;;;4.88;;
71116;SDS011;58775;46.992;9.518;2023-03-12T01:22:06;11.97;;;5.17;;
71116;SDS011;58775;46.992;9.518;2023-03-12T01:24:06;11.05;;;5.13;;
71116;SDS011;58775;46.992;9.518;2023-03-12T01:26:08;12.18;;;5.38;;
71116;SDS011;58775;46.992;9.518;2023-03-12T01:28:09;12.15;;;5.00;;
71116;SDS011;58775;46.992;9.518;2023-03-12T01:30:10;10.23;;;4.13;;
71116;SDS011;58775;46.992;9.518;2023-03-12T01:32:11;10.75;;;4.88;;
71116;SDS011;58775;46.992;9.518;2023-03-12T01:34:13;10.98;;;4.57;;
71116;SDS011;58775;46.992;9.518;2023-03-12T01:36:15;12.07;;;5.35;;
71116;SDS011;58775;46.992;9.518;2023-03-12T01:38:19;12.15;;;4.85;;
71116;SDS011;58775;46.992;9.518;2023-03-12T01:40:21;11.43;;;4.63;;
71116;SDS011;58775;46.992;9.518;2023-03-12T01:42:25;9.60;;;4.55;;
71116;SDS011;58775;46.992;9.518;2023-03-12T01:44:27;10.32;;;4.63;;
71116;SDS011;58775;46.992;9.518;2023-03-12T01:48:47;10.23;;;4.95;;
71116;SDS011;58775;46.992;9.518;2023-03-12T01:50:53;10.13;;;4.27;;
71116;SDS011;58775;46.992;9.518;2023-03-12T01:52:55;11.55;;;4.82;;
71116;SDS011;58775;46.992;9.518;2023-03-12T01:57:10;11.27;;;4.88;;
71116;SDS011;58775;46.992;9.518;2023-03-12T01:59:16;10.07;;;4.28;;
71116;SDS011;58775;46.992;9.518;2023-03-12T02:01:21;10.43;;;4.63;;
71116;SDS011;58775;46.992;9.518;2023-03-12T02:03:23;11.80;;;5.40;;
71116;SDS011;58775;46.992;9.518;2023-03-12T02:05:41;11.05;;;5.07;;
71116;SDS011;58775;46.992;9.518;2023-03-12T02:07:47;10.75;;;4.53;;
71116;SDS011;58775;46.992;9.518;2023-03-12T02:09:48;10.37;;;4.63;;
71116;SDS011;58775;46.992;9.518;2023-03-12T02:11:50;10.23;;;5.18;;
71116;SDS011;58775;46.992;9.518;2023-03-12T02:13:53;11.15;;;4.88;;
71116;SDS011;58775;46.992;9.518;2023-03-12T02:15:54;10.48;;;4.72;;
71116;SDS011;58775;46.992;9.518;2023-03-12T02:17:55;11.75;;;5.22;;
71116;SDS011;58775;46.992;9.518;2023-03-12T02:22:24;11.35;;;4.95;;
71116;SDS011;58775;46.992;9.518;2023-03-12T02:24:33;10.80;;;4.70;;
71116;SDS011;58775;46.992;9.518;2023-03-12T02:26:43;10.73;;;4.82;;
71116;SDS011;58775;46.992;9.518;2023-03-12T02:28:45;12.23;;;5.18;;
71116;SDS011;58775;46.992;9.518;2023-03-12T02:30:49;10.77;;;5.30;;
71116;SDS011;58775;46.992;9.518;2023-03-12T02:32:53;9.85;;;4.40;;
71116;SDS011;58775;46.992;9.518;2023-03-12T02:34:56;12.15;;;5.45;;
71116;SDS011;58775;46.992;9.518;2023-03-12T02:36:57;10.57;;;4.57;;
71116;SDS011;58775;46.992;9.518;2023-03-12T02:38:58;10.93;;;4.80;;
71116;SDS011;58775;46.992;9.518;2023-03-12T02:41:00;12.50;;;5.40;;
71116;SDS011;58775;46.992;9.518;2023-03-12T02:43:05;13.52;;;5.40;;
71116;SDS011;58775;46.992;9.518;2023-03-12T02:45:08;10.95;;;4.40;;
71116;SDS011;58775;46.992;9.518;2023-03-12T02:47:10;12.30;;;4.53;;
71116;SDS011;58775;46.992;9.518;2023-03-12T02:49:11;14.67;;;6.03;;
71116;SDS011;58775;46.992;9.518;2023-03-12T02:51:14;13.10;;;5.80;;
71116;SDS011;58775;46.992;9.518;2023-03-12T02:53:15;13.55;;;5.75;;
71116;SDS011;58775;46.992;9.518;2023-03-12T02:55:16;14.30;;;5.70;;
71116;SDS011;58775;46.992;9.518;2023-03-12T02:57:17;12.95;;;5.47;;
71116;SDS011;58775;46.992;9.518;2023-03-12T02:59:19;13.33;;;5.70;;
71116;SDS011;58775;46.992;9.518;2023-03-12T03:01:25;16.85;;;6.03;;
71116;SDS011;58775;46.992;9.518;2023-03-12T03:03:26;16.70;;;7.20;;
71116;SDS011;58775;46.992;9.518;2023-03-12T03:05:27;16.05;;;6.38;;
71116;SDS011;58775;46.992;9.518;2023-03-12T03:07:28;16.57;;;6.83;;
71116;SDS011;58775;46.992;9.518;2023-03-12T03:09:31;14.55;;;6.10;;
71116;SDS011;58775;46.992;9.518;2023-03-12T03:11:32;15.40;;;6.28;;
71116;SDS011;58775;46.992;9.518;2023-03-12T03:13:36;15.88;;;6.38;;
71116;SDS011;58775;46.992;9.518;2023-03-12T03:15:37;17.52;;;6.60;;
71116;SDS011;58775;46.992;9.518;2023-03-12T03:17:38;15.30;;;6.57;;
71116;SDS011;58775;46.992;9.518;2023-03-12T03:19:39;16.25;;;6.78;;
71116;SDS011;58775;46.992;9.518;2023-03-12T03:21:41;15.63;;;6.03;;
71116;SDS011;58775;46.992;9.518;2023-03-12T03:23:43;15.02;;;6.30;;
71116;SDS011;58775;46.992;9.518;2023-03-12T03:25:45;16.30;;;6.47;;
71116;SDS011;58775;46.992;9.518;2023-03-12T03:27:46;13.57;;;5.80;;
71116;SDS011;58775;46.992;9.518;2023-03-12T03:29:48;17.45;;;6.47;;
71116;SDS011;58775;46.992;9.518;2023-03-12T03:31:49;18.65;;;6.80;;
71116;SDS011;58775;46.992;9.518;2023-03-12T03:33:51;17.05;;;6.50;;
71116;SDS011;58775;46.992;9.518;2023-03-12T03:35:52;14.60;;;6.07;;
71116;SDS011;58775;46.992;9.518;2023-03-12T03:37:54;13.98;;;5.80;;
71116;SDS011;58775;46.992;9.518;2023-03-12T03:39:55;15.13;;;5.60;;
71116;SDS011;58775;46.992;9.518;2023-03-12T03:41:57;15.63;;;6.55;;
71116;SDS011;58775;46.992;9.518;2023-03-12T03:44:00;14.48;;;5.78;;
71116;SDS011;58775;46.992;9.518;2023-03-12T03:46:04;15.07;;;6.20;;
71116;SDS011;58775;46.992;9.518;2023-03-12T03:48:09;16.20;;;6.82;;
71116;SDS011;58775;46.992;9.518;2023-03-12T03:50:11;15.48;;;6.97;;
71116;SDS011;58775;46.992;9.518;2023-03-12T03:52:12;15.57;;;6.45;;
71116;SDS011;58775;46.992;9.518;2023-03-12T03:54:13;17.85;;;7.05;;
71116;SDS011;58775;46.992;9.518;2023-03-12T03:56:16;14.13;;;5.77;;
71116;SDS011;58775;46.992;9.518;2023-03-12T03:58:23;14.80;;;5.72;;
71116;SDS011;58775;46.992;9.518;2023-03-12T04:00:24;14.45;;;6.53;;
71116;SDS011;58775;46.992;9.518;2023-03-12T04:02:26;15.27;;;5.63;;
71116;SDS011;58775;46.992;9.518;2023-03-12T04:04:28;15.15;;;6.00;;
71116;SDS011;58775;46.992;9.518;2023-03-12T04:06:31;11.80;;;4.97;;
71116;SDS011;58775;46.992;9.518;2023-03-12T04:08:33;12.57;;;5.07;;
71116;SDS011;58775;46.992;9.518;2023-03-12T04:10:38;12.27;;;5.32;;
71116;SDS011;58775;46.992;9.518;2023-03-12T04:12:39;11.98;;;4.88;;
71116;SDS011;58775;46.992;9.518;2023-03-12T04:14:41;12.85;;;4.97;;
71116;SDS011;58775;46.992;9.518;2023-03-12T04:16:43;12.13;;;4.53;;
71116;SDS011;58775;46.992;9.518;2023-03-12T04:18:45;10.48;;;3.97;;
71116;SDS011;58775;46.992;9.518;2023-03-12T04:20:46;10.73;;;3.75;;
71116;SDS011;58775;46.992;9.518;2023-03-12T04:22:47;11.10;;;4.18;;
71116;SDS011;58775;46.992;9.518;2023-03-12T04:24:50;14.43;;;4.67;;
71116;SDS011;58775;46.992;9.518;2023-03-12T04:26:51;11.57;;;4.93;;
71116;SDS011;58775;46.992;9.518;2023-03-12T04:28:52;14.05;;;5.53;;
71116;SDS011;58775;46.992;9.518;2023-03-12T04:31:00;12.57;;;5.00;;
71116;SDS011;58775;46.992;9.518;2023-03-12T04:33:08;11.33;;;4.37;;
71116;SDS011;58775;46.992;9.518;2023-03-12T04:35:09;12.35;;;4.78;;
71116;SDS011;58775;46.992;9.518;2023-03-12T04:37:10;9.95;;;4.05;;
71116;SDS011;58775;46.992;9.518;2023-03-12T04:39:16;11.57;;;4.35;;
71116;SDS011;58775;46.992;9.518;2023-03-12T04:41:22;11.27;;;4.45;;
71116;SDS011;58775;46.992;9.518;2023-03-12T04:43:33;11.53;;;4.43;;
71116;SDS011;58775;46.992;9.518;2023-03-12T04:45:35;14.27;;;5.18;;
71116;SDS011;58775;46.992;9.518;2023-03-12T04:47:39;14.32;;;5.35;;
71116;SDS011;58775;46.992;9.518;2023-03-12T04:49:40;13.50;;;5.45;;
71116;SDS011;58775;46.992;9.518;2023-03-12T04:51:41;12.55;;;4.57;;
71116;SDS011;58775;46.992;9.518;2023-03-12T04:53:42;11.07;;;4.60;;
71116;SDS011;58775;46.992;9.518;2023-03-12T04:55:45;9.82;;;3.58;;
71116;SDS011;58775;46.992;9.518;2023-03-12T04:57:46;10.93;;;3.15;;
71116;SDS011;58775;46.992;9.518;2023-03-12T04:59:47;8.55;;;3.17;;
71116;SDS011;58775;46.992;9.518;2023-03-12T05:01:48;8.65;;;3.33;;
71116;SDS011;58775;46.992;9.518;2023-03-12T05:03:56;8.23;;;3.13;;
71116;SDS011;58775;46.992;9.518;2023-03-12T05:05:58;8.05;;;3.13;;
71116;SDS011;58775;46.992;9.518;2023-03-12T05:07:59;7.82;;;2.88;;
71116;SDS011;58775;46.992;9.518;2023-03-12T05:10:00;7.13;;;2.38;;
71116;SDS011;58775;46.992;9.518;2023-03-12T05:12:02;4.82;;;1.80;;
71116;SDS011;58775;46.992;9.518;2023-03-12T05:14:03;4.90;;;1.30;;
71116;SDS011;58775;46.992;9.518;2023-03-12T05:16:04;5.80;;;1.85;;
71116;SDS011;58775;46.992;9.518;2023-03-12T05:18:05;5.55;;;1.35;;
71116;SDS011;58775;46.992;9.518;2023-03-12T05:20:07;5.10;;;0.98;;
71116;SDS011;58775;46.992;9.518;2023-03-12T05:22:11;4.05;;;1.20;;
71116;SDS011;58775;46.992;9.518;2023-03-12T05:24:12;4.23;;;1.10;;
71116;SDS011;58775;46.992;9.518;2023-03-12T05:26:19;4.25;;;1.10;;
71116;SDS011;58775;46.992;9.518;2023-03-12T05:28:24;4.72;;;1.60;;
71116;SDS011;58775;46.992;9.518;2023-03-12T05:30:29;5.97;;;1.75;;
71116;SDS011;58775;46.992;9.518;2023-03-12T05:32:30;6.05;;;1.50;;
71116;SDS011;58775;46.992;9.518;2023-03-12T05:34:32;5.83;;;1.57;;
71116;SDS011;58775;46.992;9.518;2023-03-12T05:36:35;4.93;;;1.70;;
71116;SDS011;58775;46.992;9.518;2023-03-12T05:38:36;6.57;;;1.42;;
71116;SDS011;58775;46.992;9.518;2023-03-12T05:40:38;5.22;;;1.42;;
71116;SDS011;58775;46.992;9.518;2023-03-12T05:42:39;4.45;;;1.00;;
71116;SDS011;58775;46.992;9.518;2023-03-12T05:44:42;1.80;;;0.50;;
71116;SDS011;58775;46.992;9.518;2023-03-12T05:46:47;2.17;;;0.60;;
71116;SDS011;58775;46.992;9.518;2023-03-12T05:48:48;4.40;;;0.70;;
71116;SDS011;58775;46.992;9.518;2023-03-12T05:50:50;4.18;;;1.10;;
71116;SDS011;58775;46.992;9.518;2023-03-12T05:52:51;4.47;;;1.30;;
71116;SDS011;58775;46.992;9.518;2023-03-12T05:54:53;5.15;;;1.38;;
71116;SDS011;58775;46.992;9.518;2023-03-12T05:56:54;6.60;;;1.38;;
71116;SDS011;58775;46.992;9.518;2023-03-12T05:59:00;6.05;;;1.67;;
71116;SDS011;58775;46.992;9.518;2023-03-12T06:01:01;4.28;;;1.10;;
71116;SDS011;58775;46.992;9.518;2023-03-12T06:03:04;4.27;;;1.20;;
71116;SDS011;58775;46.992;9.518;2023-03-12T06:05:05;6.32;;;1.45;;
71116;SDS011;58775;46.992;9.518;2023-03-12T06:07:06;7.95;;;2.45;;
71116;SDS011;58775;46.992;9.518;2023-03-12T06:09:08;9.43;;;2.92;;
71116;SDS011;58775;46.992;9.518;2023-03-12T06:11:10;9.15;;;2.80;;
71116;SDS011;58775;46.992;9.518;2023-03-12T06:13:12;9.73;;;2.60;;
71116;SDS011;58775;46.992;9.518;2023-03-12T06:15:13;8.48;;;2.47;;
71116;SDS011;58775;46.992;9.518;2023-03-12T06:17:16;6.90;;;1.92;;
71116;SDS011;58775;46.992;9.518;2023-03-12T06:19:17;4.70;;;1.60;;
71116;SDS011;58775;46.992;9.518;2023-03-12T06:21:22;7.13;;;2.43;;
71116;SDS011;58775;46.992;9.518;2023-03-12T06:23:26;8.98;;;2.10;;
71116;SDS011;58775;46.992;9.518;2023-03-12T06:25:27;6.03;;;1.83;;
71116;SDS011;58775;46.992;9.518;2023-03-12T06:27:28;5.72;;;1.25;;
71116;SDS011;58775;46.992;9.518;2023-03-12T06:29:29;5.00;;;1.40;;
71116;SDS011;58775;46.992;9.518;2023-03-12T06:31:30;3.93;;;1.00;;
71116;SDS011;58775;46.992;9.518;2023-03-12T06:33:31;3.20;;;0.60;;
71116;SDS011;58775;46.992;9.518;2023-03-12T06:35:33;1.63;;;0.30;;
71116;SDS011;58775;46.992;9.518;2023-03-12T06:37:34;2.10;;;0.30;;
71116;SDS011;58775;46.992;9.518;2023-03-12T06:39:35;2.30;;;0.35;;
71116;SDS011;58775;46.992;9.518;2023-03-12T06:41:37;1.43;;;0.30;;
71116;SDS011;58775;46.992;9.518;2023-03-12T06:43:38;1.25;;;0.20;;
71116;SDS011;58775;46.992;9.518;2023-03-12T06:45:40;1.23;;;0.20;;
71116;SDS011;58775;46.992;9.518;2023-03-12T06:47:41;0.85;;;0.10;;
71116;SDS011;58775;46.992;9.518;2023-03-12T06:49:42;1.08;;;0.20;;
71116;SDS011;58775;46.992;9.518;2023-03-12T06:51:43;0.80;;;0.10;;
71116;SDS011;58775;46.992;9.518;2023-03-12T06:53:44;1.17;;;0.10;;
71116;SDS011;58775;46.992;9.518;2023-03-12T06:55:48;0.10;;;0.00;;
71116;SDS011;58775;46.992;9.518;2023-03-12T06:57:50;1.63;;;0.30;;
71116;SDS011;58775;46.992;9.518;2023-03-12T06:59:54;3.20;;;0.40;;
71116;SDS011;58775;46.992;9.518;2023-03-12T07:01:55;0.73;;;0.20;;
71116;SDS011;58775;46.992;9.518;2023-03-12T07:03:56;1.58;;;0.40;;
71116;SDS011;58775;46.992;9.518;2023-03-12T07:05:57;3.53;;;0.80;;
71116;SDS011;58775;46.992;9.518;2023-03-12T07:07:59;6.32;;;1.50;;
71116;SDS011;58775;46.992;9.518;2023-03-12T07:10:00;5.93;;;1.70;;
71116;SDS011;58775;46.992;9.518;2023-03-12T07:12:01;5.07;;;1.40;;
71116;SDS011;58775;46.992;9.518;2023-03-12T07:14:03;4.05;;;1.10;;
71116;SDS011;58775;46.992;9.518;2023-03-12T07:16:05;4.97;;;1.90;;
71116;SDS011;58775;46.992;9.518;2023-03-12T07:18:08;5.47;;;1.40;;
71116;SDS011;58775;46.992;9.518;2023-03-12T07:20:11;4.20;;;1.30;;
71116;SDS011;58775;46.992;9.518;2023-03-12T07:22:12;4.90;;;1.47;;
71116;SDS011;58775;46.992;9.518;2023-03-12T07:24:13;6.00;;;1.65;;
71116;SDS011;58775;46.992;9.518;2023-03-12T07:26:14;4.13;;;0.93;;
71116;SDS011;58775;46.992;9.518;2023-03-12T07:28:16;5.20;;;1.40;;
71116;SDS011;58775;46.992;9.518;2023-03-12T07:30:17;3.85;;;1.17;;
71116;SDS011;58775;46.992;9.518;2023-03-12T07:32:18;4.38;;;1.02;;
71116;SDS011;58775;46.992;9.518;2023-03-12T07:34:19;4.32;;;0.93;;
71116;SDS011;58775;46.992;9.518;2023-03-12T07:36:21;3.97;;;1.20;;
71116;SDS011;58775;46.992;9.518;2023-03-12T07:38:22;3.78;;;1.25;;
71116;SDS011;58775;46.992;9.518;2023-03-12T07:40:23;4.83;;;1.30;;
71116;SDS011;58775;46.992;9.518;2023-03-12T07:42:25;5.57;;;1.98;;
71116;SDS011;58775;46.992;9.518;2023-03-12T07:44:29;5.13;;;1.88;;
71116;SDS011;58775;46.992;9.518;2023-03-12T07:46:30;5.43;;;1.67;;
71116;SDS011;58775;46.992;9.518;2023-03-12T07:48:32;7.03;;;3.45;;
71116;SDS011;58775;46.992;9.518;2023-03-12T07:50:33;6.50;;;2.13;;
71116;SDS011;58775;46.992;9.518;2023-03-12T07:52:35;5.93;;;1.77;;
71116;SDS011;58775;46.992;9.518;2023-03-12T07:54:36;5.45;;;1.52;;
71116;SDS011;58775;46.992;9.518;2023-03-12T07:56:38;4.93;;;1.20;;
71116;SDS011;58775;46.992;9.518;2023-03-12T07:58:39;5.50;;;1.48;;
71116;SDS011;58775;46.992;9.518;2023-03-12T08:00:40;3.70;;;1.27;;
71116;SDS011;58775;46.992;9.518;2023-03-12T08:02:41;12.00;;;4.45;;
71116;SDS011;58775;46.992;9.518;2023-03-12T08:04:42;24.60;;;9.82;;
71116;SDS011;58775;46.992;9.518;2023-03-12T08:06:43;22.27;;;8.43;;
71116;SDS011;58775;46.992;9.518;2023-03-12T08:08:45;12.85;;;5.25;;
71116;SDS011;58775;46.992;9.518;2023-03-12T08:10:46;9.82;;;4.00;;
71116;SDS011;58775;46.992;9.518;2023-03-12T08:12:47;7.43;;;2.75;;
71116;SDS011;58775;46.992;9.518;2023-03-12T08:14:48;8.15;;;2.80;;
71116;SDS011;58775;46.992;9.518;2023-03-12T08:16:49;8.30;;;2.60;;
71116;SDS011;58775;46.992;9.518;2023-03-12T08:18:50;7.13;;;2.65;;
71116;SDS011;58775;46.992;9.518;2023-03-12T08:20:52;6.50;;;2.08;;
71116;SDS011;58775;46.992;9.518;2023-03-12T08:22:54;7.65;;;1.80;;
71116;SDS011;58775;46.992;9.518;2023-03-12T08:24:55;8.07;;;1.65;;
71116;SDS011;58775;46.992;9.518;2023-03-12T08:26:56;5.97;;;1.58;;
71116;SDS011;58775;46.992;9.518;2023-03-12T08:29:03;4.22;;;1.13;;
71116;SDS011;58775;46.992;9.518;2023-03-12T08:31:06;5.47;;;1.50;;
71116;SDS011;58775;46.992;9.518;2023-03-12T08:33:09;7.07;;;2.03;;
71116;SDS011;58775;46.992;9.518;2023-03-12T08:35:24;6.50;;;2.38;;
71116;SDS011;58775;46.992;9.518;2023-03-12T08:37:26;6.75;;;1.90;;
71116;SDS011;58775;46.992;9.518;2023-03-12T08:39:32;6.35;;;1.90;;
71116;SDS011;58775;46.992;9.518;2023-03-12T08:41:49;9.38;;;2.13;;
71116;SDS011;58775;46.992;9.518;2023-03-12T08:43:55;5.28;;;1.90;;
71116;SDS011;58775;46.992;9.518;2023-03-12T09:04:25;6.07;;;2.17;;
71116;SDS011;58775;46.992;9.518;2023-03-12T09:06:27;5.78;;;2.08;;
71116;SDS011;58775;46.992;9.518;2023-03-12T09:08:28;4.85;;;1.60;;
71116;SDS011;58775;46.992;9.518;2023-03-12T09:10:30;5.45;;;1.67;;
71116;SDS011;58775;46.992;9.518;2023-03-12T09:12:32;3.25;;;1.10;;
71116;SDS011;58775;46.992;9.518;2023-03-12T09:14:33;4.90;;;1.67;;
71116;SDS011;58775;46.992;9.518;2023-03-12T09:16:35;5.78;;;1.77;;
71116;SDS011;58775;46.992;9.518;2023-03-12T09:18:36;6.40;;;1.77;;
71116;SDS011;58775;46.992;9.518;2023-03-12T09:20:37;5.40;;;1.38;;
71116;SDS011;58775;46.992;9.518;2023-03-12T09:22:39;4.82;;;1.30;;
71116;SDS011;58775;46.992;9.518;2023-03-12T09:24:41;5.32;;;1.60;;
71116;SDS011;58775;46.992;9.518;2023-03-12T09:26:43;3.85;;;1.40;;
71116;SDS011;58775;46.992;9.518;2023-03-12T09:28:44;4.32;;;1.20;;
71116;SDS011;58775;46.992;9.518;2023-03-12T09:30:45;5.32;;;1.20;;
71116;SDS011;58775;46.992;9.518;2023-03-12T09:32:47;4.78;;;1.30;;
71116;SDS011;58775;46.992;9.518;2023-03-12T09:34:49;3.58;;;1.20;;
71116;SDS011;58775;46.992;9.518;2023-03-12T09:36:51;5.20;;;1.70;;
71116;SDS011;58775;46.992;9.518;2023-03-12T09:38:53;6.30;;;1.65;;
71116;SDS011;58775;46.992;9.518;2023-03-12T09:40:56;5.88;;;1.83;;
71116;SDS011;58775;46.992;9.518;2023-03-12T09:42:59;5.40;;;1.80;;
71116;SDS011;58775;46.992;9.518;2023-03-12T09:45:04;5.30;;;1.77;;
71116;SDS011;58775;46.992;9.518;2023-03-12T09:56:59;3.97;;;1.50;;
71116;SDS011;58775;46.992;9.518;2023-03-12T10:00:23;4.70;;;1.42;;
71116;SDS011;58775;46.992;9.518;2023-03-12T10:05:42;4.88;;;1.50;;
71116;SDS011;58775;46.992;9.518;2023-03-12T10:08:19;5.07;;;1.52;;
71116;SDS011;58775;46.992;9.518;2023-03-12T10:10:50;4.32;;;1.58;;
71116;SDS011;58775;46.992;9.518;2023-03-12T10:15:27;4.55;;;1.50;;
71116;SDS011;58775;46.992;9.518;2023-03-12T10:30:30;5.18;;;1.70;;
71116;SDS011;58775;46.992;9.518;2023-03-12T10:51:25;5.93;;;1.83;;
71116;SDS011;58775;46.992;9.518;2023-03-12T10:53:27;6.72;;;1.55;;
71116;SDS011;58775;46.992;9.518;2023-03-12T10:55:36;5.15;;;1.75;;
71116;SDS011;58775;46.992;9.518;2023-03-12T10:57:39;5.43;;;1.77;;
71116;SDS011;58775;46.992;9.518;2023-03-12T10:59:43;5.38;;;1.80;;
71116;SDS011;58775;46.992;9.518;2023-03-12T11:01:48;4.55;;;1.55;;
71116;SDS011;58775;46.992;9.518;2023-03-12T11:03:52;4.88;;;1.73;;
71116;SDS011;58775;46.992;9.518;2023-03-12T11:06:23;5.57;;;1.98;;
71116;SDS011;58775;46.992;9.518;2023-03-12T11:08:30;5.03;;;1.50;;
71116;SDS011;58775;46.992;9.518;2023-03-12T11:10:42;6.03;;;2.92;;
71116;SDS011;58775;46.992;9.518;2023-03-12T11:12:56;7.00;;;2.05;;
71116;SDS011;58775;46.992;9.518;2023-03-12T11:14:58;5.90;;;1.98;;
71116;SDS011;58775;46.992;9.518;2023-03-12T11:16:59;6.40;;;1.77;;
71116;SDS011;58775;46.992;9.518;2023-03-12T11:19:30;6.07;;;1.80;;
71116;SDS011;58775;46.992;9.518;2023-03-12T11:21:34;5.10;;;1.60;;
71116;SDS011;58775;46.992;9.518;2023-03-12T11:23:41;5.38;;;1.80;;
71116;SDS011;58775;46.992;9.518;2023-03-12T11:25:51;5.70;;;1.60;;
71116;SDS011;58775;46.992;9.518;2023-03-12T11:27:59;7.03;;;1.45;;
71116;SDS011;58775;46.992;9.518;2023-03-12T11:30:02;4.63;;;1.35;;
71116;SDS011;58775;46.992;9.518;2023-03-12T11:34:26;4.75;;;1.60;;
71116;SDS011;58775;46.992;9.518;2023-03-12T11:36:38;6.90;;;1.60;;
71116;SDS011;58775;46.992;9.518;2023-03-12T11:38:42;5.00;;;1.80;;
71116;SDS011;58775;46.992;9.518;2023-03-12T11:45:53;11.95;;;5.05;;
71116;SDS011;58775;46.992;9.518;2023-03-12T11:51:00;10.13;;;4.22;;
71116;SDS011;58775;46.992;9.518;2023-03-12T11:55:31;8.27;;;2.00;;
71116;SDS011;58775;46.992;9.518;2023-03-12T11:57:59;4.50;;;1.80;;
71116;SDS011;58775;46.992;9.518;2023-03-12T12:06:57;10.40;;;5.35;;
71116;SDS011;58775;46.992;9.518;2023-03-12T12:12:04;8.13;;;2.70;;
71116;SDS011;58775;46.992;9.518;2023-03-12T12:16:47;5.95;;;2.00;;
71116;SDS011;58775;46.992;9.518;2023-03-12T12:21:35;5.30;;;1.73;;
71116;SDS011;58775;46.992;9.518;2023-03-12T12:25:00;4.97;;;1.50;;
71116;SDS011;58775;46.992;9.518;2023-03-12T12:27:08;6.97;;;2.00;;
71116;SDS011;58775;46.992;9.518;2023-03-12T12:31:56;3.63;;;1.10;;
71116;SDS011;58775;46.992;9.518;2023-03-12T12:36:12;6.03;;;1.30;;
71116;SDS011;58775;46.992;9.518;2023-03-12T12:40:39;5.32;;;1.38;;
71116;SDS011;58775;46.992;9.518;2023-03-12T12:43:02;3.45;;;1.25;;
71116;SDS011;58775;46.992;9.518;2023-03-12T12:45:24;4.13;;;1.30;;
71116;SDS011;58775;46.992;9.518;2023-03-12T12:47:36;5.13;;;1.35;;
71116;SDS011;58775;46.992;9.518;2023-03-12T12:49:48;3.90;;;1.50;;
71116;SDS011;58775;46.992;9.518;2023-03-12T12:52:02;3.10;;;1.20;;
71116;SDS011;58775;46.992;9.518;2023-03-12T12:54:21;4.97;;;1.40;;
71116;SDS011;58775;46.992;9.518;2023-03-12T13:01:33;3.75;;;1.10;;
71116;SDS011;58775;46.992;9.518;2023-03-12T13:03:36;6.38;;;1.60;;
71116;SDS011;58775;46.992;9.518;2023-03-12T13:07:45;6.00;;;2.75;;
71116;SDS011;58775;46.992;9.518;2023-03-12T13:09:48;6.93;;;3.20;;
71116;SDS011;58775;46.992;9.518;2023-03-12T13:11:51;16.13;;;6.90;;
71116;SDS011;58775;46.992;9.518;2023-03-12T13:18:57;6.68;;;2.40;;
71116;SDS011;58775;46.992;9.518;2023-03-12T13:23:49;6.90;;;2.40;;
71116;SDS011;58775;46.992;9.518;2023-03-12T13:26:22;5.18;;;1.90;;
71116;SDS011;58775;46.992;9.518;2023-03-12T13:30:52;4.40;;;2.00;;
71116;SDS011;58775;46.992;9.518;2023-03-12T13:34:59;6.15;;;2.00;;
71116;SDS011;58775;46.992;9.518;2023-03-12T13:43:40;5.28;;;1.75;;
71116;SDS011;58775;46.992;9.518;2023-03-12T13:46:04;5.30;;;2.05;;
71116;SDS011;58775;46.992;9.518;2023-03-12T13:48:53;4.78;;;1.67;;
71116;SDS011;58775;46.992;9.518;2023-03-12T13:51:09;4.47;;;1.42;;
71116;SDS011;58775;46.992;9.518;2023-03-12T15:17:58;0.30;;;0.10;;
71116;SDS011;58775;46.992;9.518;2023-03-12T16:08:45;2.30;;;0.45;;
71116;SDS011;58775;46.992;9.518;2023-03-12T16:11:00;2.15;;;0.25;;
71116;SDS011;58775;46.992;9.518;2023-03-12T16:13:03;0.10;;;0.10;;
71116;SDS011;58775;46.992;9.518;2023-03-12T16:15:06;0.93;;;0.20;;
71116;SDS011;58775;46.992;9.518;2023-03-12T16:17:14;1.50;;;0.20;;
71116;SDS011;58775;46.992;9.518;2023-03-12T16:19:19;1.48;;;0.13;;
71116;SDS011;58775;46.992;9.518;2023-03-12T16:21:23;0.60;;;0.20;;
71116;SDS011;58775;46.992;9.518;2023-03-12T16:23:25;0.10;;;0.10;;
71116;SDS011;58775;46.992;9.518;2023-03-12T16:25:27;0.17;;;0.10;;
71116;SDS011;58775;46.992;9.518;2023-03-12T16:27:29;0.75;;;0.20;;
71116;SDS011;58775;46.992;9.518;2023-03-12T16:29:35;0.30;;;0.10;;
71116;SDS011;58775;46.992;9.518;2023-03-12T16:31:39;0.47;;;0.20;;
71116;SDS011;58775;46.992;9.518;2023-03-12T16:33:41;1.05;;;0.20;;
71116;SDS011;58775;46.992;9.518;2023-03-12T16:35:45;0.38;;;0.15;;
71116;SDS011;58775;46.992;9.518;2023-03-12T16:37:48;1.90;;;0.20;;
71116;SDS011;58775;46.992;9.518;2023-03-12T16:39:52;1.88;;;0.10;;
71116;SDS011;58775;46.992;9.518;2023-03-12T16:41:56;1.17;;;0.30;;
71116;SDS011;58775;46.992;9.518;2023-03-12T16:44:00;2.28;;;0.30;;
71116;SDS011;58775;46.992;9.518;2023-03-12T16:46:03;3.17;;;0.32;;
71116;SDS011;58775;46.992;9.518;2023-03-12T16:48:11;1.13;;;0.30;;
71116;SDS011;58775;46.992;9.518;2023-03-12T16:50:20;2.00;;;0.20;;
71116;SDS011;58775;46.992;9.518;2023-03-12T16:52:23;0.30;;;0.10;;